Toyofujimaru No.2 — 7JDI — position and weather

sailwx.info

Track history (hours):
 
Tides and Currents Weather Stations Pressure Air Temp Water Temp Dewpoint Dewpoint Depression Visibility Wind Speed Wind Dir Waves Ship Positions

Toyofujimaru No.2

Last reported at 2017-Dec-16 22:03 UTC. Time now 2017-Dec-17 12:07 UTC.
Position N 34°05' E 138°09'.

Length 165 m; draft 6.3 m.

Type: Ship. MMSI: 432667000.

Date/timePositionNaut miles runAvg speedWind from/ knotsBaromVisibWave heightAir tempDewpointWater temp
2017-Dec-16 22:03N 34°05' E 138°09'114.9
2017-Dec-16 22:00N 34°06' E 138°10'714.7
2017-Dec-16 21:30N 34°09' E 138°18'714.0
2017-Dec-16 20:59N 34°13' E 138°25'1011.8
2017-Dec-16 20:10N 34°17' E 138°36'310.3
2017-Dec-16 19:52N 34°18' E 138°40'511.8
2017-Dec-16 19:26N 34°21' E 138°45'913.3
2017-Dec-16 18:47N 34°25' E 138°54'413.3
2017-Dec-16 18:30N 34°26' E 138°58'713.4
2017-Dec-16 17:59N 34°29' E 139°06'613.4
2017-Dec-16 17:30N 34°32' E 139°13'714.0
2017-Dec-16 17:00N 34°35' E 139°20'714.1
2017-Dec-16 16:30N 34°39' E 139°28'815.2
2017-Dec-16 16:00N 34°42' E 139°36'816.0
2017-Dec-16 15:30N 34°46' E 139°45'815.3
2017-Dec-16 15:00N 34°50' E 139°53'914.4
2017-Dec-16 14:24N 34°54' E 140°02'614.0
2017-Dec-16 14:00N 34°57' E 140°08'713.8
2017-Dec-16 13:30N 34°60' E 140°15'713.6
2017-Dec-16 13:00N 35°04' E 140°23'  
2017-Dec-09 13:33N 35°03' E 140°28'123.2
2017-Dec-09 13:30N 35°02' E 140°27'1122.8
2017-Dec-09 13:00N 34°56' E 140°16'1122.0
2017-Dec-09 12:30N 34°51' E 140°04'1121.2
2017-Dec-09 12:00N 34°46' E 139°52'1121.8
2017-Dec-09 11:30N 34°41' E 139°40'1121.0
2017-Dec-09 11:00N 34°37' E 139°28'1020.9
2017-Dec-09 10:30N 34°34' E 139°17'1121.1
2017-Dec-09 10:00N 34°30' E 139°04'1021.1
2017-Dec-09 09:30N 34°28' E 138°52'1121.1
2017-Dec-09 08:59N 34°28' E 138°39'1021.6
2017-Dec-09 08:30N 34°28' E 138°26'1121.1
2017-Dec-09 08:00N 34°28' E 138°13'1121.4
2017-Dec-09 07:30N 34°29' E 138°00'1121.1
2017-Dec-09 07:00N 34°29' E 137°48'1421.0
2017-Dec-09 06:18N 34°30' E 137°30'620.6
2017-Dec-09 06:00N 34°31' E 137°23'1020.3
2017-Dec-09 05:30N 34°32' E 137°10'816.4
2017-Dec-09 05:00N 34°33' E 137°00'817.0
2017-Dec-09 04:30N 34°39' E 136°52'1021.0
2017-Dec-09 04:00N 34°48' E 136°46'1019.4
2017-Dec-09 03:31N 34°57' E 136°47'713.6
2017-Dec-09 03:00N 35°03' E 136°52'1 1.8
2017-Dec-09 02:30N 35°03' E 136°53'0 0.0
2017-Dec-09 01:55N 35°03' E 136°53'0 0.0
2017-Dec-09 01:30N 35°03' E 136°53'1 1.4
2017-Dec-09 01:00N 35°03' E 136°53'0 0.0
2017-Dec-09 00:28N 35°03' E 136°53'0 0.0
2017-Dec-08 23:58N 35°03' E 136°53'0 0.0
2017-Dec-08 23:28N 35°03' E 136°53'0 0.0
2017-Dec-08 22:58N 35°03' E 136°53'0 0.2
2017-Dec-08 22:30N 35°03' E 136°53'510.4
2017-Dec-08 22:00N 34°59' E 136°49'611.9
2017-Dec-08 21:30N 34°53' E 136°46'612.8
2017-Dec-08 21:00N 34°48' E 136°41'0 0.2
2017-Dec-08 20:24N 34°48' E 136°42'0 0.0
2017-Dec-08 20:00N 34°48' E 136°42'0 0.1
2017-Dec-08 19:30N 34°48' E 136°42'0 0.1
2017-Dec-08 19:00N 34°48' E 136°41'0 0.0
2017-Dec-08 18:30N 34°48' E 136°41'0 0.1
2017-Dec-08 17:54N 34°48' E 136°42'0 0.1
2017-Dec-08 17:30N 34°48' E 136°41'0 0.1
2017-Dec-08 16:54N 34°48' E 136°42'0 0.1
2017-Dec-08 16:30N 34°48' E 136°41'0 0.0
2017-Dec-08 16:00N 34°48' E 136°41'0 0.0
2017-Dec-08 15:30N 34°48' E 136°41'0 0.0
2017-Dec-08 14:48N 34°48' E 136°41'0 0.0
2017-Dec-08 14:30N 34°48' E 136°41'0 0.0
2017-Dec-08 14:00N 34°48' E 136°41'0 0.0
2017-Dec-08 13:30N 34°48' E 136°41'0 0.0
2017-Dec-08 13:00N 34°48' E 136°41'0 0.0
2017-Dec-08 12:30N 34°48' E 136°41'0 0.0
2017-Dec-08 12:00N 34°48' E 136°41'3 6.8
2017-Dec-08 11:30N 34°46' E 136°44'1119.5
2017-Dec-08 10:57N 34°40' E 136°56'818.1
2017-Dec-08 10:30N 34°41' E 137°05'918.1
2017-Dec-08 10:00N 34°44' E 137°16'2 4.2
2017-Dec-08 09:30N 34°43' E 137°18'2 0.5
2017-Dec-08 05:28N 34°44' E 137°16'917.6
2017-Dec-08 04:57N 34°41' E 137°05'613.9
2017-Dec-08 04:30N 34°37' E 136°60'611.2
2017-Dec-08 04:00N 34°31' E 137°02'2919.1
2017-Dec-08 02:29N 34°05' E 136°48'24318.5
2017-Dec-07 13:19N 33°08' E 132°04'719.5
2017-Dec-07 12:58N 33°14' E 132°01'919.3
2017-Dec-07 12:30N 33°22' E 131°56'1019.7
2017-Dec-07 12:00N 33°31' E 131°51'1019.5
2017-Dec-07 11:30N 33°40' E 131°46'918.0
2017-Dec-07 11:00N 33°46' E 131°38'1019.8
2017-Dec-07 10:30N 33°47' E 131°26'1019.9
2017-Dec-07 10:00N 33°50' E 131°15'816.5
2017-Dec-07 09:30N 33°53' E 131°05'5 9.5
2017-Dec-07 09:00N 33°53' E 130°60'0 0.0
2017-Dec-07 08:30N 33°53' E 130°60'0 0.0
2017-Dec-07 07:55N 33°53' E 130°60'0 0.0
2017-Dec-07 07:25N 33°53' E 130°60'0 0.0
2017-Dec-07 06:55N 33°53' E 130°60'0 0.0
2017-Dec-07 06:25N 33°53' E 130°60'0 0.0
2017-Dec-07 05:55N 33°53' E 130°60'0 0.0
2017-Dec-07 05:25N 33°53' E 130°60'0 0.0
2017-Dec-07 04:55N 33°53' E 130°60'0 0.0
2017-Dec-07 04:19N 33°53' E 130°60'0 0.0
2017-Dec-07 03:58N 33°53' E 130°60'0 0.0
2017-Dec-07 03:25N 33°53' E 130°60'0 0.0
2017-Dec-07 02:55N 33°53' E 130°60'0 0.0
2017-Dec-07 02:25N 33°53' E 130°60'0 0.0
2017-Dec-07 01:55N 33°53' E 130°60'0 0.0
2017-Dec-07 01:25N 33°53' E 130°60'0 0.0
2017-Dec-07 00:55N 33°53' E 130°60'0 0.0
2017-Dec-07 00:25N 33°53' E 130°60'0 0.0
2017-Dec-06 23:55N 33°53' E 130°60'0 0.0
2017-Dec-06 23:25N 33°53' E 130°60'0 0.0
2017-Dec-06 22:55N 33°53' E 130°60'0 0.0
2017-Dec-06 22:25N 33°53' E 130°60'  
Track history (hours):
 
Tides and Currents Weather Stations Pressure Air Temp Water Temp Dewpoint Dewpoint Depression Visibility Wind Speed Wind Dir Waves Ship Positions

Toyofujimaru No.2

Last reported at 2017-Dec-16 22:03 UTC. Time now 2017-Dec-17 12:07 UTC.
Position N 34°05' E 138°09'.

Length 165 m; draft 6.3 m.

Type: Ship. MMSI: 432667000.

Date/timePositionNaut miles runAvg speedWind from/ knotsBaromVisibWave heightAir tempDewpointWater temp
2017-Dec-16 22:03N 34°05' E 138°09'114.9
2017-Dec-16 22:00N 34°06' E 138°10'714.7
2017-Dec-16 21:30N 34°09' E 138°18'714.0
2017-Dec-16 20:59N 34°13' E 138°25'1011.8
2017-Dec-16 20:10N 34°17' E 138°36'310.3
2017-Dec-16 19:52N 34°18' E 138°40'511.8
2017-Dec-16 19:26N 34°21' E 138°45'913.3
2017-Dec-16 18:47N 34°25' E 138°54'413.3
2017-Dec-16 18:30N 34°26' E 138°58'713.4
2017-Dec-16 17:59N 34°29' E 139°06'613.4
2017-Dec-16 17:30N 34°32' E 139°13'714.0
2017-Dec-16 17:00N 34°35' E 139°20'714.1
2017-Dec-16 16:30N 34°39' E 139°28'815.2
2017-Dec-16 16:00N 34°42' E 139°36'816.0
2017-Dec-16 15:30N 34°46' E 139°45'815.3
2017-Dec-16 15:00N 34°50' E 139°53'914.4
2017-Dec-16 14:24N 34°54' E 140°02'614.0
2017-Dec-16 14:00N 34°57' E 140°08'713.8
2017-Dec-16 13:30N 34°60' E 140°15'713.6
2017-Dec-16 13:00N 35°04' E 140°23'  
2017-Dec-09 13:33N 35°03' E 140°28'123.2
2017-Dec-09 13:30N 35°02' E 140°27'1122.8
2017-Dec-09 13:00N 34°56' E 140°16'1122.0
2017-Dec-09 12:30N 34°51' E 140°04'1121.2
2017-Dec-09 12:00N 34°46' E 139°52'1121.8
2017-Dec-09 11:30N 34°41' E 139°40'1121.0
2017-Dec-09 11:00N 34°37' E 139°28'1020.9
2017-Dec-09 10:30N 34°34' E 139°17'1121.1
2017-Dec-09 10:00N 34°30' E 139°04'1021.1
2017-Dec-09 09:30N 34°28' E 138°52'1121.1
2017-Dec-09 08:59N 34°28' E 138°39'1021.6
2017-Dec-09 08:30N 34°28' E 138°26'1121.1
2017-Dec-09 08:00N 34°28' E 138°13'1121.4
2017-Dec-09 07:30N 34°29' E 138°00'1121.1
2017-Dec-09 07:00N 34°29' E 137°48'1421.0
2017-Dec-09 06:18N 34°30' E 137°30'620.6
2017-Dec-09 06:00N 34°31' E 137°23'1020.3
2017-Dec-09 05:30N 34°32' E 137°10'816.4
2017-Dec-09 05:00N 34°33' E 137°00'817.0
2017-Dec-09 04:30N 34°39' E 136°52'1021.0
2017-Dec-09 04:00N 34°48' E 136°46'1019.4
2017-Dec-09 03:31N 34°57' E 136°47'713.6
2017-Dec-09 03:00N 35°03' E 136°52'1 1.8
2017-Dec-09 02:30N 35°03' E 136°53'0 0.0
2017-Dec-09 01:55N 35°03' E 136°53'0 0.0
2017-Dec-09 01:30N 35°03' E 136°53'1 1.4
2017-Dec-09 01:00N 35°03' E 136°53'0 0.0
2017-Dec-09 00:28N 35°03' E 136°53'0 0.0
2017-Dec-08 23:58N 35°03' E 136°53'0 0.0
2017-Dec-08 23:28N 35°03' E 136°53'0 0.0
2017-Dec-08 22:58N 35°03' E 136°53'0 0.2
2017-Dec-08 22:30N 35°03' E 136°53'510.4
2017-Dec-08 22:00N 34°59' E 136°49'611.9
2017-Dec-08 21:30N 34°53' E 136°46'612.8
2017-Dec-08 21:00N 34°48' E 136°41'0 0.2
2017-Dec-08 20:24N 34°48' E 136°42'0 0.0
2017-Dec-08 20:00N 34°48' E 136°42'0 0.1
2017-Dec-08 19:30N 34°48' E 136°42'0 0.1
2017-Dec-08 19:00N 34°48' E 136°41'0 0.0
2017-Dec-08 18:30N 34°48' E 136°41'0 0.1
2017-Dec-08 17:54N 34°48' E 136°42'0 0.1
2017-Dec-08 17:30N 34°48' E 136°41'0 0.1
2017-Dec-08 16:54N 34°48' E 136°42'0 0.1
2017-Dec-08 16:30N 34°48' E 136°41'0 0.0
2017-Dec-08 16:00N 34°48' E 136°41'0 0.0
2017-Dec-08 15:30N 34°48' E 136°41'0 0.0
2017-Dec-08 14:48N 34°48' E 136°41'0 0.0
2017-Dec-08 14:30N 34°48' E 136°41'0 0.0
2017-Dec-08 14:00N 34°48' E 136°41'0 0.0
2017-Dec-08 13:30N 34°48' E 136°41'0 0.0
2017-Dec-08 13:00N 34°48' E 136°41'0 0.0
2017-Dec-08 12:30N 34°48' E 136°41'0 0.0
2017-Dec-08 12:00N 34°48' E 136°41'3 6.8
2017-Dec-08 11:30N 34°46' E 136°44'1119.5
2017-Dec-08 10:57N 34°40' E 136°56'818.1
2017-Dec-08 10:30N 34°41' E 137°05'918.1
2017-Dec-08 10:00N 34°44' E 137°16'2 4.2
2017-Dec-08 09:30N 34°43' E 137°18'2 0.5
2017-Dec-08 05:28N 34°44' E 137°16'917.6
2017-Dec-08 04:57N 34°41' E 137°05'613.9
2017-Dec-08 04:30N 34°37' E 136°60'611.2
2017-Dec-08 04:00N 34°31' E 137°02'2919.1
2017-Dec-08 02:29N 34°05' E 136°48'24318.5
2017-Dec-07 13:19N 33°08' E 132°04'719.5
2017-Dec-07 12:58N 33°14' E 132°01'919.3
2017-Dec-07 12:30N 33°22' E 131°56'1019.7
2017-Dec-07 12:00N 33°31' E 131°51'1019.5
2017-Dec-07 11:30N 33°40' E 131°46'918.0
2017-Dec-07 11:00N 33°46' E 131°38'1019.8
2017-Dec-07 10:30N 33°47' E 131°26'1019.9
2017-Dec-07 10:00N 33°50' E 131°15'816.5
2017-Dec-07 09:30N 33°53' E 131°05'5 9.5
2017-Dec-07 09:00N 33°53' E 130°60'0 0.0
2017-Dec-07 08:30N 33°53' E 130°60'0 0.0
2017-Dec-07 07:55N 33°53' E 130°60'0 0.0
2017-Dec-07 07:25N 33°53' E 130°60'0 0.0
2017-Dec-07 06:55N 33°53' E 130°60'0 0.0
2017-Dec-07 06:25N 33°53' E 130°60'0 0.0
2017-Dec-07 05:55N 33°53' E 130°60'0 0.0
2017-Dec-07 05:25N 33°53' E 130°60'0 0.0
2017-Dec-07 04:55N 33°53' E 130°60'0 0.0
2017-Dec-07 04:19N 33°53' E 130°60'0 0.0
2017-Dec-07 03:58N 33°53' E 130°60'0 0.0
2017-Dec-07 03:25N 33°53' E 130°60'0 0.0
2017-Dec-07 02:55N 33°53' E 130°60'0 0.0
2017-Dec-07 02:25N 33°53' E 130°60'0 0.0
2017-Dec-07 01:55N 33°53' E 130°60'0 0.0
2017-Dec-07 01:25N 33°53' E 130°60'0 0.0
2017-Dec-07 00:55N 33°53' E 130°60'0 0.0
2017-Dec-07 00:25N 33°53' E 130°60'0 0.0
2017-Dec-06 23:55N 33°53' E 130°60'0 0.0
2017-Dec-06 23:25N 33°53' E 130°60'0 0.0
2017-Dec-06 22:55N 33°53' E 130°60'0 0.0
2017-Dec-06 22:25N 33°53' E 130°60'  

Dump ship's entire track history